Time;durP1;ratioP1;P1;durP2;ratioP2;P2;SDS_P1;SDS_P2;PMS_P1;PMS_P2;Temp;Humidity;BMP_temperature;BMP_pressure;BME280_temperature;BME280_humidity;BME280_pressure;Samples;Min_cycle;Max_cycle;Signal;HPM_P1;HPM_P2
2021/01/22 00:00:27;;;;;;;6.80;1.10;;;;;;;;;;5116224;28;20548;-72
2021/01/22 00:02:55;;;;;;;3.57;1.37;;;;;;;;;;5117574;28;20462;-74
2021/01/22 00:05:24;;;;;;;3.00;1.00;;;;;;;;;;5116972;28;20432;-74
2021/01/22 00:07:51;;;;;;;1.67;0.70;;;;;;;;;;5116508;28;20455;-75
2021/01/22 00:10:19;;;;;;;4.83;1.20;;;;;;;;;;5117443;28;20450;-73
2021/01/22 00:12:48;;;;;;;3.03;1.37;;;;;;;;;;5117852;28;20496;-71
2021/01/22 00:15:17;;;;;;;3.60;1.40;;;;;;;;;;5116933;28;20544;-72
2021/01/22 00:17:45;;;;;;;2.50;1.10;;;;;;;;;;5116775;28;20739;-72
2021/01/22 00:20:13;;;;;;;3.40;1.43;;;;;;;;;;5116812;28;20459;-73
2021/01/22 00:22:44;;;;;;;7.60;1.70;;;;;;;;;;5131973;28;20458;-72
2021/01/22 00:25:13;;;;;;;3.83;1.93;;;;;;;;;;5127948;28;20455;-73
2021/01/22 00:27:41;;;;;;;2.30;1.10;;;;;;;;;;5119672;28;20553;-72
2021/01/22 00:30:11;;;;;;;3.27;1.23;;;;;;;;;;5120457;28;20447;-72
2021/01/22 00:32:39;;;;;;;4.27;1.10;;;;;;;;;;5121672;27;20459;-72
2021/01/22 00:35:08;;;;;;;2.47;1.27;;;;;;;;;;5121064;28;20770;-72
2021/01/22 00:37:35;;;;;;;2.87;1.53;;;;;;;;;;5120755;28;20457;-72
2021/01/22 00:40:06;;;;;;;4.17;1.00;;;;;;;;;;5120480;28;20451;-72
2021/01/22 00:42:38;;;;;;;4.00;1.50;;;;;;;;;;5138294;27;20482;-72
2021/01/22 00:45:08;;;;;;;1.60;1.00;;;;;;;;;;5141299;27;20455;-72
2021/01/22 00:47:37;;;;;;;6.37;1.83;;;;;;;;;;5140989;27;20496;-72
2021/01/22 00:50:08;;;;;;;2.40;1.13;;;;;;;;;;5141307;27;20456;-72
2021/01/22 00:52:35;;;;;;;4.10;1.47;;;;;;;;;;5140859;27;20505;-72
2021/01/22 00:55:03;;;;;;;2.47;1.17;;;;;;;;;;5140638;27;20463;-72
2021/01/22 00:57:30;;;;;;;8.07;1.50;;;;;;;;;;5140188;27;20470;-73
2021/01/22 01:00:01;;;;;;;4.67;1.20;;;;;;;;;;5141125;27;20458;-70
2021/01/22 01:02:29;;;;;;;3.67;1.60;;;;;;;;;;5137610;27;20460;-73
2021/01/22 01:04:57;;;;;;;2.50;1.30;;;;;;;;;;5119972;28;20733;-72
2021/01/22 01:07:26;;;;;;;3.03;1.00;;;;;;;;;;5119975;28;20456;-72
2021/01/22 01:09:57;;;;;;;2.70;1.40;;;;;;;;;;5131327;27;20440;-73
2021/01/22 01:12:27;;;;;;;3.67;1.40;;;;;;;;;;5123170;27;20494;-72
2021/01/22 01:14:56;;;;;;;4.13;1.20;;;;;;;;;;5119279;27;20453;-73
2021/01/22 01:17:24;;;;;;;4.30;1.40;;;;;;;;;;5119980;28;20469;-73
2021/01/22 01:19:52;;;;;;;5.83;1.40;;;;;;;;;;5119158;28;20428;-73
2021/01/22 01:22:20;;;;;;;2.57;1.03;;;;;;;;;;5122786;27;20492;-72
2021/01/22 01:24:50;;;;;;;2.37;0.90;;;;;;;;;;5119653;27;20451;-73
2021/01/22 01:27:22;;;;;;;2.00;1.10;;;;;;;;;;5120477;27;20793;-72
2021/01/22 01:29:53;;;;;;;4.87;1.17;;;;;;;;;;5118826;28;20522;-72
2021/01/22 01:32:26;;;;;;;1.97;0.90;;;;;;;;;;5120802;27;20484;-72
2021/01/22 01:34:53;;;;;;;2.93;1.27;;;;;;;;;;5118871;28;20457;-73
2021/01/22 01:37:22;;;;;;;2.60;1.00;;;;;;;;;;5119694;28;20553;-71
2021/01/22 01:39:52;;;;;;;4.73;1.40;;;;;;;;;;5132731;27;20452;-73
2021/01/22 01:42:19;;;;;;;2.20;1.00;;;;;;;;;;5138486;27;20756;-72
2021/01/22 01:44:48;;;;;;;3.50;1.67;;;;;;;;;;5135159;27;20445;-73
2021/01/22 01:47:16;;;;;;;1.80;0.90;;;;;;;;;;5119409;28;20462;-73
2021/01/22 01:49:45;;;;;;;3.50;1.00;;;;;;;;;;5118566;28;20459;-71
2021/01/22 01:52:13;;;;;;;4.87;1.20;;;;;;;;;;5119259;28;20452;-72
2021/01/22 01:54:41;;;;;;;1.70;0.80;;;;;;;;;;5119346;28;20453;-73
2021/01/22 01:57:10;;;;;;;4.03;0.90;;;;;;;;;;5119106;28;20749;-72
2021/01/22 01:59:40;;;;;;;2.20;1.10;;;;;;;;;;5119199;28;20556;-73
2021/01/22 02:02:10;;;;;;;2.27;1.23;;;;;;;;;;5131853;27;20494;-72
2021/01/22 02:04:37;;;;;;;3.37;1.00;;;;;;;;;;5128935;27;20469;-72
2021/01/22 02:07:05;;;;;;;2.30;1.00;;;;;;;;;;5119290;28;20907;-72
2021/01/22 02:09:32;;;;;;;2.33;1.10;;;;;;;;;;5119504;28;20454;-73
2021/01/22 02:12:01;;;;;;;3.27;1.20;;;;;;;;;;5121607;28;20483;-72
2021/01/22 02:14:32;;;;;;;3.83;0.97;;;;;;;;;;5119071;28;20456;-72
2021/01/22 02:16:59;;;;;;;2.23;1.40;;;;;;;;;;5118929;28;20886;-72
2021/01/22 02:19:35;;;;;;;2.10;0.90;;;;;;;;;;5126515;27;20462;-72
2021/01/22 02:22:02;;;;;;;2.10;1.00;;;;;;;;;;5123859;27;20535;-72
2021/01/22 02:24:31;;;;;;;1.90;1.10;;;;;;;;;;5138481;27;20656;-73
2021/01/22 02:27:03;;;;;;;1.87;0.97;;;;;;;;;;5138637;27;20546;-73
2021/01/22 02:29:32;;;;;;;2.40;1.20;;;;;;;;;;5138089;27;21013;-72
2021/01/22 02:32:05;;;;;;;1.97;0.90;;;;;;;;;;5139656;27;20479;-73
2021/01/22 02:34:37;;;;;;;1.83;0.97;;;;;;;;;;5139284;27;20447;-73
2021/01/22 02:37:05;;;;;;;2.10;0.87;;;;;;;;;;5128386;27;20751;-73
2021/01/22 02:39:35;;;;;;;3.83;0.90;;;;;;;;;;5118047;28;20476;-73
2021/01/22 02:42:05;;;;;;;2.00;1.00;;;;;;;;;;5117919;28;20491;-73
2021/01/22 02:44:35;;;;;;;1.73;0.70;;;;;;;;;;5118005;28;20946;-73
2021/01/22 02:47:06;;;;;;;3.90;0.70;;;;;;;;;;5117951;28;20465;-71
2021/01/22 02:49:34;;;;;;;1.77;0.73;;;;;;;;;;5117473;28;20461;-72
2021/01/22 02:52:02;;;;;;;2.13;0.80;;;;;;;;;;5117867;28;20491;-73
2021/01/22 02:54:31;;;;;;;1.67;0.70;;;;;;;;;;5117969;28;20511;-72
2021/01/22 02:57:02;;;;;;;3.03;0.70;;;;;;;;;;5117723;28;20463;-72
2021/01/22 02:59:44;;;;;;;1.70;0.80;;;;;;;;;;5117501;28;20447;-72
2021/01/22 03:02:16;;;;;;;1.83;0.77;;;;;;;;;;5117458;28;20892;-72
2021/01/22 03:04:45;;;;;;;2.27;0.70;;;;;;;;;;5130212;27;20534;-72
2021/01/22 03:07:14;;;;;;;1.73;0.80;;;;;;;;;;5138214;27;20727;-72
2021/01/22 03:09:45;;;;;;;1.50;0.70;;;;;;;;;;5138250;27;20774;-72
2021/01/22 03:12:15;;;;;;;2.00;0.60;;;;;;;;;;5137882;27;20534;-72
2021/01/22 03:14:45;;;;;;;1.60;0.73;;;;;;;;;;5138144;27;20444;-73
2021/01/22 03:17:18;;;;;;;1.90;0.87;;;;;;;;;;5137835;27;20451;-72
2021/01/22 03:19:46;;;;;;;2.80;0.90;;;;;;;;;;5137905;27;20543;-72
2021/01/22 03:22:14;;;;;;;2.13;1.07;;;;;;;;;;5137850;27;20594;-72
2021/01/22 03:24:44;;;;;;;3.37;1.00;;;;;;;;;;5127112;27;20527;-72
2021/01/22 03:27:12;;;;;;;3.83;0.83;;;;;;;;;;5117207;28;20473;-73
2021/01/22 03:29:40;;;;;;;1.90;0.80;;;;;;;;;;5117296;28;20846;-72
2021/01/22 03:32:09;;;;;;;1.40;0.60;;;;;;;;;;5117086;28;20462;-72
2021/01/22 03:34:36;;;;;;;1.67;0.80;;;;;;;;;;5117289;28;20518;-72
2021/01/22 03:37:04;;;;;;;1.80;0.80;;;;;;;;;;5117533;28;20468;-72
2021/01/22 03:39:35;;;;;;;1.40;0.60;;;;;;;;;;5116735;28;20549;-72
2021/01/22 03:42:03;;;;;;;1.80;0.70;;;;;;;;;;5116972;28;20988;-72
2021/01/22 03:44:30;;;;;;;2.60;0.70;;;;;;;;;;5117258;28;20449;-72
2021/01/22 03:47:00;;;;;;;1.40;0.60;;;;;;;;;;5116719;28;20463;-72
2021/01/22 03:49:28;;;;;;;1.63;0.70;;;;;;;;;;5117216;28;20846;-72
2021/01/22 03:51:57;;;;;;;1.90;0.83;;;;;;;;;;5117541;28;20453;-71
2021/01/22 03:54:26;;;;;;;1.90;0.80;;;;;;;;;;5130726;28;21002;-71
2021/01/22 03:56:54;;;;;;;2.03;0.80;;;;;;;;;;5137086;28;20507;-71
2021/01/22 03:59:21;;;;;;;2.40;0.60;;;;;;;;;;5137685;28;20462;-72
2021/01/22 04:01:49;;;;;;;2.40;0.77;;;;;;;;;;5137197;27;20498;-72
2021/01/22 04:04:16;;;;;;;2.83;1.00;;;;;;;;;;5141392;27;20448;-72
2021/01/22 04:06:45;;;;;;;2.60;0.80;;;;;;;;;;5141242;27;20464;-72
2021/01/22 04:09:12;;;;;;;3.27;0.80;;;;;;;;;;5140967;27;20468;-72
2021/01/22 04:11:40;;;;;;;3.13;0.80;;;;;;;;;;5128241;27;20862;-72
2021/01/22 04:14:08;;;;;;;2.50;0.70;;;;;;;;;;5120925;28;20835;-72
2021/01/22 04:16:35;;;;;;;2.20;0.60;;;;;;;;;;5124213;27;20469;-72
2021/01/22 04:19:03;;;;;;;3.30;0.70;;;;;;;;;;5124379;27;20532;-72
2021/01/22 04:21:31;;;;;;;2.50;0.60;;;;;;;;;;5139260;27;20487;-72
2021/01/22 04:23:59;;;;;;;2.60;0.80;;;;;;;;;;5140340;27;20463;-72
2021/01/22 04:26:47;;;;;;;;;;;;;;;;;;;;;
2021/01/22 04:29:14;;;;;;;2.13;0.70;;;;;;;;;;5136499;27;20439;-71
2021/01/22 04:31:41;;;;;;;3.70;0.80;;;;;;;;;;5128599;27;20457;-72
2021/01/22 04:34:09;;;;;;;2.37;0.70;;;;;;;;;;5126124;27;20895;-71
2021/01/22 04:36:38;;;;;;;2.30;0.80;;;;;;;;;;5130048;27;20459;-72
2021/01/22 04:39:07;;;;;;;3.30;0.70;;;;;;;;;;5123219;27;20454;-72
2021/01/22 04:41:34;;;;;;;2.10;0.80;;;;;;;;;;5136421;27;20475;-72
2021/01/22 04:44:02;;;;;;;3.20;1.33;;;;;;;;;;5139841;27;20539;-72
2021/01/22 04:46:33;;;;;;;2.10;0.73;;;;;;;;;;5135926;27;20749;-72
2021/01/22 04:49:02;;;;;;;2.10;0.70;;;;;;;;;;5122238;27;20488;-72
2021/01/22 04:51:31;;;;;;;3.50;1.00;;;;;;;;;;5121388;27;20482;-71
2021/01/22 04:54:03;;;;;;;4.10;1.10;;;;;;;;;;5127361;27;20448;-72
2021/01/22 04:56:33;;;;;;;5.00;0.87;;;;;;;;;;5119042;28;21223;-72
2021/01/22 04:59:01;;;;;;;2.43;0.70;;;;;;;;;;5123798;27;20859;-73
2021/01/22 05:01:30;;;;;;;2.00;0.80;;;;;;;;;;5122819;27;20496;-72
2021/01/22 05:03:59;;;;;;;2.13;0.50;;;;;;;;;;5135204;27;20478;-72
2021/01/22 05:06:26;;;;;;;2.30;1.00;;;;;;;;;;5126681;27;20447;-73
2021/01/22 05:08:54;;;;;;;2.63;0.73;;;;;;;;;;5119827;28;20929;-72
2021/01/22 05:11:22;;;;;;;1.90;0.47;;;;;;;;;;5138377;27;20518;-72
2021/01/22 05:13:51;;;;;;;2.10;0.60;;;;;;;;;;5124989;27;20457;-72
2021/01/22 05:16:18;;;;;;;1.90;0.50;;;;;;;;;;5128052;27;20459;-73
2021/01/22 05:18:46;;;;;;;1.90;0.43;;;;;;;;;;5120284;27;20458;-73
2021/01/22 05:21:14;;;;;;;2.50;0.53;;;;;;;;;;5119253;28;20484;-73
2021/01/22 05:23:42;;;;;;;1.90;0.50;;;;;;;;;;5118995;28;20507;-73
2021/01/22 05:26:11;;;;;;;1.80;0.50;;;;;;;;;;5119267;28;20726;-73
2021/01/22 05:28:39;;;;;;;1.80;0.40;;;;;;;;;;5119688;28;20459;-73
2021/01/22 05:31:08;;;;;;;1.90;0.40;;;;;;;;;;5119084;28;20464;-73
2021/01/22 05:33:35;;;;;;;2.57;0.50;;;;;;;;;;5119595;28;20436;-73
2021/01/22 05:36:18;;;;;;;2.23;0.60;;;;;;;;;;5122796;27;20456;-73
2021/01/22 05:38:46;;;;;;;1.90;0.40;;;;;;;;;;5137893;27;20467;-73
2021/01/22 05:41:14;;;;;;;1.93;0.50;;;;;;;;;;5134492;27;21339;-73
2021/01/22 05:43:41;;;;;;;1.90;0.50;;;;;;;;;;5139651;27;20477;-72
2021/01/22 05:46:13;;;;;;;1.90;0.50;;;;;;;;;;5139364;27;20450;-72
2021/01/22 05:48:41;;;;;;;2.20;0.50;;;;;;;;;;5139095;27;20450;-72
2021/01/22 05:51:09;;;;;;;2.10;0.50;;;;;;;;;;5137864;27;20873;-72
2021/01/22 05:53:44;;;;;;;1.83;0.50;;;;;;;;;;5139937;27;20454;-73
2021/01/22 05:56:14;;;;;;;2.10;0.50;;;;;;;;;;5139251;27;20881;-73
2021/01/22 05:58:43;;;;;;;1.90;0.50;;;;;;;;;;5138637;27;20446;-73
2021/01/22 06:01:11;;;;;;;2.00;0.50;;;;;;;;;;5138128;27;20483;-73
2021/01/22 06:03:43;;;;;;;1.90;0.50;;;;;;;;;;5138261;27;20459;-73
2021/01/22 06:06:14;;;;;;;2.00;0.60;;;;;;;;;;5138225;27;20455;-73
2021/01/22 06:08:48;;;;;;;1.90;0.60;;;;;;;;;;5138252;27;20554;-73
2021/01/22 06:11:18;;;;;;;1.90;0.60;;;;;;;;;;5138285;27;20813;-73
2021/01/22 06:13:48;;;;;;;1.90;0.50;;;;;;;;;;5137874;27;20460;-73
2021/01/22 06:16:21;;;;;;;2.00;0.57;;;;;;;;;;5138630;27;20478;-73
2021/01/22 06:18:50;;;;;;;2.10;0.60;;;;;;;;;;5136992;27;20446;-72
2021/01/22 06:21:21;;;;;;;2.20;0.80;;;;;;;;;;5135435;27;20917;-73
2021/01/22 06:23:49;;;;;;;2.20;0.70;;;;;;;;;;5136789;27;20450;-72
2021/01/22 06:26:16;;;;;;;1.90;0.50;;;;;;;;;;5136356;27;20553;-72
2021/01/22 06:28:44;;;;;;;2.30;0.90;;;;;;;;;;5137058;27;20459;-72
2021/01/22 06:31:12;;;;;;;2.10;0.83;;;;;;;;;;5136423;27;20897;-72
2021/01/22 06:33:40;;;;;;;2.60;1.20;;;;;;;;;;5137090;27;20433;-72
2021/01/22 06:36:10;;;;;;;2.13;0.83;;;;;;;;;;5136177;27;20882;-73
2021/01/22 06:38:40;;;;;;;5.03;0.90;;;;;;;;;;5137149;27;20538;-72
2021/01/22 06:41:08;;;;;;;3.10;1.17;;;;;;;;;;5136449;27;20495;-72
2021/01/22 06:43:36;;;;;;;2.43;1.13;;;;;;;;;;5137123;27;20478;-72
2021/01/22 06:46:06;;;;;;;3.63;1.23;;;;;;;;;;5137404;27;20449;-72
2021/01/22 06:48:48;;;;;;;4.27;1.40;;;;;;;;;;5137387;27;20450;-72
2021/01/22 06:51:17;;;;;;;2.90;1.27;;;;;;;;;;5129253;27;20455;-72
2021/01/22 06:54:03;;;;;;;2.83;1.37;;;;;;;;;;5116423;28;20916;-72
2021/01/22 06:56:30;;;;;;;2.80;1.40;;;;;;;;;;5116117;28;20451;-73
2021/01/22 06:59:18;;;;;;;2.80;1.30;;;;;;;;;;5116548;28;20453;-73
2021/01/22 07:01:46;;;;;;;2.33;1.00;;;;;;;;;;5114847;28;20514;-72
2021/01/22 07:04:37;;;;;;;5.50;2.40;;;;;;;;;;5115597;28;20520;-72
2021/01/22 07:07:12;;;;;;;3.40;1.67;;;;;;;;;;5114374;28;20519;-72
2021/01/22 07:09:52;;;;;;;4.40;1.83;;;;;;;;;;5116170;28;20439;-72
2021/01/22 07:12:39;;;;;;;2.30;1.00;;;;;;;;;;5116017;28;20447;-72
2021/01/22 07:15:36;;;;;;;3.10;1.70;;;;;;;;;;5116533;28;20444;-72
2021/01/22 07:18:06;;;;;;;3.13;1.80;;;;;;;;;;5034232;28;20765;-72
2021/01/22 07:20:33;;;;;;;3.23;1.30;;;;;;;;;;5097886;28;20479;-72
2021/01/22 07:23:02;;;;;;;4.13;1.63;;;;;;;;;;5115405;28;20458;-72
2021/01/22 07:25:31;;;;;;;3.40;1.60;;;;;;;;;;5116126;28;20542;-72
2021/01/22 07:27:58;;;;;;;4.90;2.37;;;;;;;;;;5116320;28;20571;-73
2021/01/22 07:30:37;;;;;;;4.10;2.10;;;;;;;;;;5116395;28;20988;-72
2021/01/22 07:33:20;;;;;;;4.57;1.93;;;;;;;;;;5116708;28;20451;-73
2021/01/22 07:35:47;;;;;;;5.23;2.57;;;;;;;;;;5115335;28;20492;-73
2021/01/22 07:38:24;;;;;;;5.77;1.97;;;;;;;;;;5116615;28;20447;-74
2021/01/22 07:40:51;;;;;;;7.97;3.13;;;;;;;;;;5131943;27;20736;-74
2021/01/22 07:43:20;;;;;;;4.63;2.00;;;;;;;;;;5157623;27;20888;-72
2021/01/22 07:45:47;;;;;;;4.37;2.47;;;;;;;;;;5157356;27;20845;-72
2021/01/22 07:48:28;;;;;;;8.90;2.93;;;;;;;;;;5157616;27;20725;-72
2021/01/22 07:50:57;;;;;;;6.77;2.13;;;;;;;;;;5157480;27;20544;-73
2021/01/22 07:53:31;;;;;;;3.87;1.90;;;;;;;;;;5138424;27;20461;-73
2021/01/22 07:56:05;;;;;;;4.33;1.73;;;;;;;;;;5122182;28;20948;-73
2021/01/22 07:58:38;;;;;;;3.60;1.70;;;;;;;;;;5119121;28;20490;-72
2021/01/22 08:01:05;;;;;;;3.83;1.40;;;;;;;;;;5136046;28;20493;-72
2021/01/22 08:03:44;;;;;;;3.50;1.53;;;;;;;;;;5135479;28;20474;-72
2021/01/22 08:06:13;;;;;;;3.90;1.80;;;;;;;;;;5135510;28;20460;-72
2021/01/22 08:08:42;;;;;;;4.90;2.50;;;;;;;;;;5138110;27;20443;-73
2021/01/22 08:11:20;;;;;;;4.70;2.37;;;;;;;;;;5137919;27;20756;-73
2021/01/22 08:13:47;;;;;;;5.47;2.20;;;;;;;;;;5115703;28;20473;-71
2021/01/22 08:16:22;;;;;;;6.93;2.97;;;;;;;;;;5116152;28;20462;-72
2021/01/22 08:18:50;;;;;;;4.63;2.30;;;;;;;;;;5116645;28;20461;-71
2021/01/22 08:21:17;;;;;;;4.97;3.00;;;;;;;;;;5115125;28;20557;-71
2021/01/22 08:23:47;;;;;;;4.07;2.43;;;;;;;;;;5116140;28;20453;-72
2021/01/22 08:26:15;;;;;;;5.10;2.90;;;;;;;;;;5116503;28;20459;-72
2021/01/22 08:28:43;;;;;;;8.03;5.47;;;;;;;;;;5118860;28;20859;-72
2021/01/22 08:31:12;;;;;;;6.23;3.57;;;;;;;;;;5136139;28;20729;-73
2021/01/22 08:33:42;;;;;;;4.70;2.70;;;;;;;;;;5135976;28;20525;-72
2021/01/22 08:36:10;;;;;;;5.13;2.50;;;;;;;;;;5134386;28;20469;-72
2021/01/22 08:38:38;;;;;;;8.67;3.93;;;;;;;;;;5135592;28;20450;-72
2021/01/22 08:41:09;;;;;;;7.60;3.20;;;;;;;;;;5136070;27;20494;-72
2021/01/22 08:43:49;;;;;;;6.70;3.30;;;;;;;;;;5134420;28;20442;-72
2021/01/22 08:46:17;;;;;;;6.70;3.60;;;;;;;;;;5135510;28;20461;-72
2021/01/22 08:48:45;;;;;;;8.73;2.90;;;;;;;;;;5137718;27;20887;-72
2021/01/22 08:51:13;;;;;;;8.43;3.70;;;;;;;;;;5138823;27;20608;-72
2021/01/22 08:53:53;;;;;;;6.37;3.30;;;;;;;;;;5138578;27;20457;-72
2021/01/22 08:56:22;;;;;;;6.63;3.27;;;;;;;;;;5138911;27;20463;-72
2021/01/22 08:59:14;;;;;;;6.67;3.10;;;;;;;;;;5139342;27;20519;-72
2021/01/22 09:01:51;;;;;;;8.13;4.30;;;;;;;;;;5119179;27;20482;-72
2021/01/22 09:04:24;;;;;;;6.30;4.20;;;;;;;;;;5136443;27;20469;-72
2021/01/22 09:06:55;;;;;;;7.70;4.10;;;;;;;;;;5138401;27;20504;-72
2021/01/22 09:09:55;;;;;;;6.47;3.97;;;;;;;;;;5132480;27;20458;-72
2021/01/22 09:12:30;;;;;;;4.40;2.90;;;;;;;;;;5137123;27;20459;-72
2021/01/22 09:15:00;;;;;;;6.07;3.40;;;;;;;;;;5135478;27;20525;-72
2021/01/22 09:17:29;;;;;;;8.13;4.30;;;;;;;;;;5137114;27;20467;-72
2021/01/22 09:19:58;;;;;;;6.03;3.30;;;;;;;;;;5138570;27;20439;-72
2021/01/22 09:22:34;;;;;;;5.40;3.50;;;;;;;;;;5137791;27;20493;-71
2021/01/22 09:25:01;;;;;;;6.73;4.63;;;;;;;;;;5133076;27;20463;-72
2021/01/22 09:27:30;;;;;;;7.80;4.57;;;;;;;;;;5138387;27;20474;-72
2021/01/22 09:30:00;;;;;;;7.27;4.53;;;;;;;;;;5138211;27;20454;-72
2021/01/22 09:32:29;;;;;;;11.40;6.27;;;;;;;;;;5136791;27;20743;-74
2021/01/22 09:34:56;;;;;;;10.23;5.43;;;;;;;;;;5137624;27;20457;-73
2021/01/22 09:37:24;;;;;;;9.70;4.90;;;;;;;;;;5138715;27;20450;-72
2021/01/22 09:39:53;;;;;;;11.20;6.20;;;;;;;;;;5138701;27;20705;-72
2021/01/22 09:42:21;;;;;;;9.47;5.30;;;;;;;;;;5138364;27;20488;-72
2021/01/22 09:44:49;;;;;;;12.13;5.03;;;;;;;;;;5138077;27;20454;-72
2021/01/22 09:47:17;;;;;;;9.33;3.73;;;;;;;;;;5139074;27;20451;-72
2021/01/22 09:49:44;;;;;;;9.63;5.60;;;;;;;;;;5137671;27;20719;-73
2021/01/22 09:52:12;;;;;;;9.30;5.90;;;;;;;;;;5125434;27;20860;-72
2021/01/22 09:54:39;;;;;;;12.03;6.17;;;;;;;;;;5118058;27;20802;-72
2021/01/22 09:57:07;;;;;;;8.73;4.43;;;;;;;;;;5116996;28;20455;-72
2021/01/22 09:59:35;;;;;;;8.77;4.73;;;;;;;;;;5117422;27;20517;-73
2021/01/22 10:02:03;;;;;;;8.87;4.83;;;;;;;;;;5116852;28;20506;-72
2021/01/22 10:04:32;;;;;;;7.30;3.77;;;;;;;;;;5131651;27;20454;-71
2021/01/22 10:07:00;;;;;;;8.00;3.77;;;;;;;;;;5137040;27;20447;-71
2021/01/22 10:09:30;;;;;;;11.07;5.60;;;;;;;;;;5139121;27;20477;-72
2021/01/22 10:11:58;;;;;;;10.67;6.23;;;;;;;;;;5137921;27;20875;-72
2021/01/22 10:14:26;;;;;;;10.63;4.73;;;;;;;;;;5123831;27;20881;-73
2021/01/22 10:16:58;;;;;;;9.23;4.70;;;;;;;;;;5118202;27;20863;-73
2021/01/22 10:19:27;;;;;;;9.40;4.53;;;;;;;;;;5132001;27;20761;-73
2021/01/22 10:22:04;;;;;;;14.23;4.70;;;;;;;;;;5128951;27;20529;-73
2021/01/22 10:24:32;;;;;;;13.10;5.40;;;;;;;;;;5138451;27;20786;-73
2021/01/22 10:26:59;;;;;;;8.40;4.47;;;;;;;;;;5139614;27;20473;-72
2021/01/22 10:29:27;;;;;;;9.87;4.23;;;;;;;;;;5146398;27;20458;-72
2021/01/22 10:31:57;;;;;;;7.90;3.70;;;;;;;;;;5145049;27;20436;-71
2021/01/22 10:34:24;;;;;;;8.17;4.10;;;;;;;;;;5146554;27;20509;-72
2021/01/22 10:36:53;;;;;;;5.77;3.00;;;;;;;;;;5137064;27;20548;-72
2021/01/22 10:39:20;;;;;;;6.50;3.50;;;;;;;;;;5137255;27;20782;-72
2021/01/22 10:41:48;;;;;;;14.77;5.00;;;;;;;;;;5137137;27;20902;-72
2021/01/22 10:44:15;;;;;;;10.67;5.00;;;;;;;;;;5136131;27;20468;-72
2021/01/22 10:46:44;;;;;;;6.37;2.80;;;;;;;;;;5137246;27;20496;-72
2021/01/22 10:49:12;;;;;;;7.90;3.63;;;;;;;;;;5132343;27;20824;-72
2021/01/22 10:51:43;;;;;;;8.10;4.67;;;;;;;;;;5135244;27;20466;-73
2021/01/22 10:54:20;;;;;;;9.73;5.90;;;;;;;;;;5135904;27;20454;-72
2021/01/22 10:56:47;;;;;;;17.90;7.13;;;;;;;;;;5136162;27;20443;-72
2021/01/22 10:59:15;;;;;;;9.30;5.00;;;;;;;;;;5136288;27;20881;-72
2021/01/22 11:01:43;;;;;;;8.93;4.10;;;;;;;;;;5136579;27;20486;-72
2021/01/22 11:04:10;;;;;;;8.27;3.70;;;;;;;;;;5135163;27;20450;-72
2021/01/22 11:06:38;;;;;;;8.47;3.50;;;;;;;;;;5132006;27;20850;-72
2021/01/22 11:09:08;;;;;;;7.30;3.80;;;;;;;;;;5137580;27;20458;-72
2021/01/22 11:11:38;;;;;;;5.33;3.20;;;;;;;;;;5135316;27;20500;-73
2021/01/22 11:14:09;;;;;;;5.20;3.03;;;;;;;;;;5136029;27;20943;-73
2021/01/22 11:16:36;;;;;;;8.43;4.30;;;;;;;;;;5135948;27;20442;-72
2021/01/22 11:19:06;;;;;;;9.83;3.80;;;;;;;;;;5132154;27;22228;-72
2021/01/22 11:21:34;;;;;;;4.67;3.20;;;;;;;;;;5123853;27;20470;-72
2021/01/22 11:24:03;;;;;;;5.60;4.33;;;;;;;;;;5134787;27;20457;-72
2021/01/22 11:26:30;;;;;;;5.97;3.70;;;;;;;;;;5115928;28;20447;-72
2021/01/22 11:28:59;;;;;;;7.50;3.70;;;;;;;;;;5115322;28;20465;-71
2021/01/22 11:31:28;;;;;;;7.27;3.80;;;;;;;;;;5125160;27;20459;-73
2021/01/22 11:34:01;;;;;;;3.50;2.73;;;;;;;;;;5130772;27;20451;-73
2021/01/22 11:36:28;;;;;;;5.80;4.40;;;;;;;;;;5121924;27;20547;-73
2021/01/22 11:38:56;;;;;;;4.50;3.80;;;;;;;;;;5131183;27;20440;-72
2021/01/22 11:41:23;;;;;;;7.10;4.20;;;;;;;;;;5127996;27;20544;-72
2021/01/22 11:43:51;;;;;;;4.53;3.17;;;;;;;;;;5114795;28;20852;-73
2021/01/22 11:46:20;;;;;;;6.50;3.00;;;;;;;;;;5115418;28;20546;-72
2021/01/22 11:48:47;;;;;;;6.77;4.00;;;;;;;;;;5115701;28;20493;-72
2021/01/22 11:51:15;;;;;;;5.57;3.53;;;;;;;;;;5128923;28;20920;-72
2021/01/22 11:53:43;;;;;;;4.93;3.70;;;;;;;;;;5123997;28;20462;-72
2021/01/22 11:56:11;;;;;;;5.73;3.83;;;;;;;;;;5135774;28;20446;-72
2021/01/22 11:58:38;;;;;;;8.23;4.87;;;;;;;;;;5135989;28;21047;-72
2021/01/22 12:01:06;;;;;;;6.20;3.73;;;;;;;;;;5136040;28;20778;-73
2021/01/22 12:03:35;;;;;;;7.77;3.80;;;;;;;;;;5136333;28;20458;-72
2021/01/22 12:06:03;;;;;;;6.00;4.20;;;;;;;;;;5134132;28;20449;-73
2021/01/22 12:08:31;;;;;;;5.70;4.23;;;;;;;;;;5115491;28;20482;-72
2021/01/22 12:10:59;;;;;;;4.83;3.77;;;;;;;;;;5115199;28;20448;-73
2021/01/22 12:13:27;;;;;;;11.20;4.70;;;;;;;;;;5115298;28;20465;-72
2021/01/22 12:15:57;;;;;;;9.87;5.50;;;;;;;;;;5127282;28;20768;-72
2021/01/22 12:18:28;;;;;;;5.20;3.17;;;;;;;;;;5126314;28;20851;-73
2021/01/22 12:21:01;;;;;;;5.23;3.40;;;;;;;;;;5134178;28;20459;-73
2021/01/22 12:23:32;;;;;;;7.10;3.10;;;;;;;;;;5120480;27;20483;-72
2021/01/22 12:26:00;;;;;;;6.00;4.50;;;;;;;;;;5137747;27;20451;-72
2021/01/22 12:28:34;;;;;;;6.13;3.67;;;;;;;;;;5138981;27;20447;-73
2021/01/22 12:31:02;;;;;;;5.90;4.00;;;;;;;;;;5137400;27;20456;-72
2021/01/22 12:33:29;;;;;;;7.83;3.23;;;;;;;;;;5138792;27;21058;-72
2021/01/22 12:35:59;;;;;;;13.50;3.87;;;;;;;;;;5129990;27;20458;-72
2021/01/22 12:38:28;;;;;;;6.57;3.67;;;;;;;;;;5140574;27;20541;-72
2021/01/22 12:40:57;;;;;;;5.30;4.33;;;;;;;;;;5137623;27;20458;-72
2021/01/22 12:43:24;;;;;;;7.30;3.90;;;;;;;;;;5119790;28;20492;-72
2021/01/22 12:45:51;;;;;;;6.60;4.00;;;;;;;;;;5135039;27;20457;-72
2021/01/22 12:48:19;;;;;;;8.07;4.30;;;;;;;;;;5140036;27;20971;-72
2021/01/22 12:50:46;;;;;;;8.13;3.50;;;;;;;;;;5140663;27;20453;-72
2021/01/22 12:53:14;;;;;;;6.37;4.67;;;;;;;;;;5139075;27;20513;-72
2021/01/22 12:55:45;;;;;;;9.70;4.70;;;;;;;;;;5139709;27;20776;-72
2021/01/22 12:58:13;;;;;;;7.60;4.93;;;;;;;;;;5139448;27;20459;-73
2021/01/22 13:00:40;;;;;;;7.53;4.37;;;;;;;;;;5138308;27;20434;-73
2021/01/22 13:03:08;;;;;;;8.70;3.83;;;;;;;;;;5126435;27;20479;-73
2021/01/22 13:05:37;;;;;;;8.93;3.70;;;;;;;;;;5138891;27;20436;-73
2021/01/22 13:08:05;;;;;;;12.10;4.27;;;;;;;;;;5137273;27;20464;-72
2021/01/22 13:10:34;;;;;;;5.83;4.20;;;;;;;;;;5136955;27;20744;-71
2021/01/22 13:13:02;;;;;;;5.60;3.83;;;;;;;;;;5138713;27;20556;-72
2021/01/22 13:15:30;;;;;;;9.20;3.83;;;;;;;;;;5138478;27;20458;-71
2021/01/22 13:18:04;;;;;;;4.10;2.47;;;;;;;;;;5137754;27;20453;-72
2021/01/22 13:20:42;;;;;;;4.63;2.70;;;;;;;;;;5140327;27;20535;-72
2021/01/22 13:23:17;;;;;;;9.20;4.70;;;;;;;;;;5127325;27;20473;-73
2021/01/22 13:25:50;;;;;;;4.90;3.93;;;;;;;;;;5117780;28;20527;-71
2021/01/22 13:28:27;;;;;;;5.73;3.60;;;;;;;;;;5122740;27;20469;-71
2021/01/22 13:30:56;;;;;;;4.40;2.67;;;;;;;;;;5128068;27;20856;-72
2021/01/22 13:33:23;;;;;;;6.57;3.40;;;;;;;;;;5117327;28;20474;-71
2021/01/22 13:35:51;;;;;;;4.90;3.60;;;;;;;;;;5118415;28;20474;-71
2021/01/22 13:38:34;;;;;;;4.67;3.60;;;;;;;;;;5117391;28;20449;-71
2021/01/22 13:41:01;;;;;;;5.90;4.10;;;;;;;;;;5118193;28;20452;-73
2021/01/22 13:43:34;;;;;;;8.47;4.00;;;;;;;;;;5117546;28;20928;-73
2021/01/22 13:46:02;;;;;;;7.43;4.10;;;;;;;;;;5116662;28;20488;-72
2021/01/22 13:48:34;;;;;;;5.47;3.80;;;;;;;;;;5117119;28;20451;-72
2021/01/22 13:51:11;;;;;;;6.60;4.30;;;;;;;;;;5116991;28;20460;-71
2021/01/22 13:53:39;;;;;;;6.17;3.67;;;;;;;;;;5117088;28;20520;-72
2021/01/22 13:56:13;;;;;;;7.43;3.40;;;;;;;;;;5118398;28;20563;-74
2021/01/22 13:58:43;;;;;;;6.03;3.73;;;;;;;;;;5115630;28;20467;-72
2021/01/22 14:01:11;;;;;;;6.50;3.50;;;;;;;;;;5129034;27;20485;-72
2021/01/22 14:03:46;;;;;;;4.40;3.63;;;;;;;;;;5137232;27;20565;-73
2021/01/22 14:06:14;;;;;;;13.33;4.20;;;;;;;;;;5136970;27;20457;-72
2021/01/22 14:08:43;;;;;;;4.80;3.10;;;;;;;;;;5137971;27;20447;-71
2021/01/22 14:11:15;;;;;;;9.70;3.50;;;;;;;;;;5137340;27;20469;-72
2021/01/22 14:13:54;;;;;;;8.43;3.47;;;;;;;;;;5137631;27;20566;-72
2021/01/22 14:16:23;;;;;;;5.67;3.80;;;;;;;;;;5138820;27;20883;-73
2021/01/22 14:18:51;;;;;;;6.60;3.93;;;;;;;;;;5137612;27;20451;-72
2021/01/22 14:21:19;;;;;;;7.90;4.00;;;;;;;;;;5137135;27;20542;-73
2021/01/22 14:24:00;;;;;;;9.10;3.77;;;;;;;;;;5137409;27;20473;-73
2021/01/22 14:26:34;;;;;;;7.07;3.27;;;;;;;;;;5135614;27;20463;-73
2021/01/22 14:29:08;;;;;;;5.50;3.60;;;;;;;;;;5137652;27;20589;-72
2021/01/22 14:31:42;;;;;;;6.60;3.97;;;;;;;;;;5135040;27;20841;-73
2021/01/22 14:34:11;;;;;;;8.47;3.53;;;;;;;;;;5135839;27;20700;-73
2021/01/22 14:36:50;;;;;;;5.80;2.93;;;;;;;;;;5135590;27;20516;-72
2021/01/22 14:39:32;;;;;;;7.47;3.47;;;;;;;;;;5131259;27;20495;-71
2021/01/22 14:42:25;;;;;;;4.27;3.70;;;;;;;;;;5116087;27;20480;-73
2021/01/22 14:45:02;;;;;;;4.30;3.43;;;;;;;;;;5116368;28;20556;-72
2021/01/22 14:47:33;;;;;;;6.00;4.30;;;;;;;;;;5115029;28;20449;-73
2021/01/22 14:50:14;;;;;;;5.60;3.50;;;;;;;;;;5115485;27;20464;-72
2021/01/22 14:52:45;;;;;;;6.50;3.70;;;;;;;;;;5115253;28;20649;-72
2021/01/22 14:55:33;;;;;;;6.63;4.10;;;;;;;;;;5113326;28;20519;-72
2021/01/22 14:58:03;;;;;;;4.60;3.40;;;;;;;;;;5113258;28;20784;-71
2021/01/22 15:00:40;;;;;;;7.40;3.67;;;;;;;;;;5114334;28;20459;-72